Time;durP1;ratioP1;P1;durP2;ratioP2;P2;SDS_P1;SDS_P2;PMS_P1;PMS_P2;Temp;Humidity;BMP_temperature;BMP_pressure;BME280_temperature;BME280_humidity;BME280_pressure;Samples;Min_cycle;Max_cycle;Signal;HPM_P1;HPM_P2
2022/09/21 00:00:05;;;;;;;9.37;8.57;;;5.30;99.90;;;;;;5091656;28;20213;-76
2022/09/21 00:02:31;;;;;;;11.57;10.63;;;5.20;99.90;;;;;;5091144;28;20665;-76
2022/09/21 00:04:57;;;;;;;10.73;9.73;;;5.20;99.90;;;;;;5090618;28;20169;-76
2022/09/21 00:07:22;;;;;;;11.03;10.13;;;5.20;99.90;;;;;;5090067;28;20285;-77
2022/09/21 00:09:48;;;;;;;11.77;10.90;;;5.20;99.90;;;;;;5091618;28;20192;-76
2022/09/21 00:12:15;;;;;;;10.53;9.63;;;5.20;99.90;;;;;;5090496;28;20191;-76
2022/09/21 00:14:42;;;;;;;10.20;9.30;;;5.20;99.90;;;;;;5091614;28;20188;-76
2022/09/21 00:17:08;;;;;;;10.80;9.77;;;5.20;99.90;;;;;;5091446;28;20181;-76
2022/09/21 00:19:34;;;;;;;10.97;8.43;;;5.10;99.90;;;;;;5091307;28;20193;-76
2022/09/21 00:22:01;;;;;;;8.53;7.90;;;5.10;99.90;;;;;;5090540;28;20208;-76
2022/09/21 00:24:27;;;;;;;9.93;9.03;;;5.10;99.90;;;;;;5091046;28;20176;-76
2022/09/21 00:26:52;;;;;;;11.37;8.23;;;5.10;99.90;;;;;;5091329;28;20180;-76
2022/09/21 00:29:19;;;;;;;8.03;7.33;;;5.10;99.90;;;;;;5089494;28;20181;-77
2022/09/21 00:31:45;;;;;;;9.07;7.53;;;5.10;99.90;;;;;;5100298;28;20272;-78
2022/09/21 00:34:11;;;;;;;9.30;8.43;;;5.00;99.90;;;;;;5090571;28;20204;-77
2022/09/21 00:36:37;;;;;;;9.43;8.63;;;5.00;99.90;;;;;;5096653;28;20188;-78
2022/09/21 00:39:04;;;;;;;9.77;8.93;;;5.00;99.90;;;;;;5101393;28;20321;-77
2022/09/21 00:41:31;;;;;;;11.00;9.87;;;5.00;99.90;;;;;;5091836;28;20303;-77
2022/09/21 00:44:06;;;;;;;8.40;7.70;;;5.00;99.90;;;;;;5093414;28;20180;-77
2022/09/21 00:46:35;;;;;;;8.40;7.77;;;4.90;99.90;;;;;;5093141;28;20184;-77
2022/09/21 00:49:01;;;;;;;9.40;8.50;;;4.90;99.90;;;;;;5089723;28;20649;-77
2022/09/21 00:51:28;;;;;;;9.23;8.63;;;4.90;99.90;;;;;;5091468;28;20185;-77
2022/09/21 00:54:03;;;;;;;10.33;9.47;;;4.90;99.90;;;;;;5090420;28;20181;-77
2022/09/21 00:56:29;;;;;;;9.87;8.83;;;4.90;99.90;;;;;;5091541;28;20184;-77
2022/09/21 00:58:56;;;;;;;9.70;8.77;;;4.80;99.90;;;;;;5090935;28;20192;-77
2022/09/21 01:01:23;;;;;;;9.17;8.37;;;4.80;99.90;;;;;;5089723;28;20246;-77
2022/09/21 01:03:52;;;;;;;8.53;7.93;;;4.80;99.90;;;;;;5089106;28;20188;-77
2022/09/21 01:06:20;;;;;;;10.83;9.93;;;4.80;99.90;;;;;;5090431;28;20180;-77
2022/09/21 01:08:51;;;;;;;13.67;9.87;;;4.80;99.90;;;;;;5090635;28;20180;-77
2022/09/21 01:11:21;;;;;;;9.70;8.80;;;4.80;99.90;;;;;;5090984;28;20271;-77
2022/09/21 01:14:18;;;;;;;9.67;8.90;;;4.80;99.90;;;;;;5089212;28;20213;-77
2022/09/21 01:17:01;;;;;;;9.40;8.53;;;4.70;99.90;;;;;;5090471;28;20188;-77
2022/09/21 01:20:07;;;;;;;8.70;8.10;;;4.70;99.90;;;;;;5090713;28;20209;-76
2022/09/21 01:23:02;;;;;;;9.37;8.47;;;4.60;99.90;;;;;;5066876;28;20220;-77
2022/09/21 01:25:40;;;;;;;8.93;8.13;;;4.60;99.90;;;;;;5077188;28;20276;-77
2022/09/21 01:28:20;;;;;;;9.53;8.87;;;4.60;99.90;;;;;;5070400;28;20188;-77
2022/09/21 01:30:49;;;;;;;9.03;8.40;;;4.50;99.90;;;;;;5070099;28;20277;-76
2022/09/21 01:33:31;;;;;;;10.20;9.40;;;4.50;99.90;;;;;;5075982;28;20180;-77
2022/09/21 01:36:08;;;;;;;11.07;10.30;;;4.50;99.90;;;;;;5089918;28;20521;-76
2022/09/21 01:38:48;;;;;;;14.57;13.43;;;4.50;99.90;;;;;;5089892;28;20188;-76
2022/09/21 01:41:18;;;;;;;17.77;16.10;;;4.50;99.90;;;;;;5090181;28;20219;-76
2022/09/21 01:43:54;;;;;;;12.93;11.77;;;4.40;99.90;;;;;;5090012;28;20199;-77
2022/09/21 01:46:24;;;;;;;17.77;13.23;;;4.60;99.90;;;;;;5090706;28;20770;-76
2022/09/21 01:49:03;;;;;;;19.93;11.30;;;4.70;99.90;;;;;;5090645;28;20253;-77
2022/09/21 01:51:32;;;;;;;19.87;12.50;;;4.70;99.90;;;;;;5090072;28;20196;-76
2022/09/21 01:54:05;;;;;;;21.67;13.13;;;4.70;99.90;;;;;;5089467;28;20217;-77
2022/09/21 01:56:58;;;;;;;20.07;14.17;;;4.80;99.90;;;;;;5093203;28;20192;-77
2022/09/21 01:59:50;;;;;;;35.60;13.87;;;4.90;99.90;;;;;;5095170;28;20278;-77
2022/09/21 02:02:30;;;;;;;39.20;17.77;;;5.00;99.90;;;;;;5081642;28;20310;-77
2022/09/21 02:04:56;;;;;;;25.23;18.40;;;5.00;99.90;;;;;;5093773;28;20267;-77
2022/09/21 02:07:23;;;;;;;18.57;16.63;;;5.00;99.90;;;;;;5094569;28;20523;-77
2022/09/21 02:09:50;;;;;;;13.60;12.10;;;5.00;99.90;;;;;;5098828;28;20197;-77
2022/09/21 02:12:16;;;;;;;23.53;13.53;;;5.00;99.90;;;;;;5098996;28;20181;-77
2022/09/21 02:14:42;;;;;;;17.80;16.47;;;5.00;99.90;;;;;;5092661;28;20250;-77
2022/09/21 02:17:22;;;;;;;25.10;22.97;;;5.00;99.90;;;;;;5092113;28;20272;-77
2022/09/21 02:20:01;;;;;;;19.23;17.27;;;5.00;99.90;;;;;;5093667;28;20212;-77
2022/09/21 02:22:52;;;;;;;27.27;24.70;;;5.10;99.90;;;;;;5093722;28;20299;-77
2022/09/21 02:25:29;;;;;;;19.30;17.77;;;5.10;99.90;;;;;;5092415;28;20211;-77
2022/09/21 02:28:05;;;;;;;17.80;16.13;;;5.10;99.90;;;;;;5092389;28;20172;-77
2022/09/21 02:30:33;;;;;;;14.47;13.23;;;5.10;99.90;;;;;;5092504;28;20222;-77
2022/09/21 02:33:25;;;;;;;12.67;11.67;;;5.10;99.90;;;;;;5092842;28;20625;-77
2022/09/21 02:36:04;;;;;;;14.33;11.13;;;5.00;99.90;;;;;;5092506;28;20192;-77
2022/09/21 02:38:45;;;;;;;20.37;18.73;;;5.00;99.90;;;;;;5091687;28;20189;-77
2022/09/21 02:41:44;;;;;;;16.23;14.83;;;5.10;99.90;;;;;;5091845;28;20221;-77
2022/09/21 02:44:22;;;;;;;18.43;16.60;;;5.10;99.90;;;;;;5091793;28;20188;-77
2022/09/21 02:47:00;;;;;;;18.33;16.67;;;5.10;99.90;;;;;;5092932;28;20700;-77
2022/09/21 02:49:45;;;;;;;22.27;17.10;;;5.20;99.90;;;;;;5092244;28;20200;-78
2022/09/21 02:52:15;;;;;;;36.90;17.97;;;5.20;99.90;;;;;;5093673;28;20245;-77
2022/09/21 02:54:46;;;;;;;21.07;19.10;;;5.20;99.90;;;;;;5098333;28;20169;-77
2022/09/21 02:57:13;;;;;;;29.77;18.67;;;5.30;99.90;;;;;;5100804;28;20197;-77
2022/09/21 02:59:39;;;;;;;32.17;27.63;;;5.40;99.90;;;;;;5092390;28;20579;-77
2022/09/21 03:02:05;;;;;;;16.90;14.00;;;5.30;99.90;;;;;;5093056;28;20295;-77
2022/09/21 03:04:32;;;;;;;20.63;16.20;;;5.40;99.90;;;;;;5091298;28;20307;-77
2022/09/21 03:06:58;;;;;;;24.53;10.97;;;5.30;99.90;;;;;;5092558;28;20180;-77
2022/09/21 03:09:24;;;;;;;29.13;9.87;;;5.30;99.90;;;;;;5093276;28;20196;-77
2022/09/21 03:11:50;;;;;;;13.30;8.63;;;5.30;99.90;;;;;;5094099;28;20184;-76
2022/09/21 03:14:18;;;;;;;21.23;9.03;;;5.20;99.90;;;;;;5097626;28;20177;-77
2022/09/21 03:16:44;;;;;;;15.30;9.13;;;5.20;99.90;;;;;;5092118;28;20193;-77
2022/09/21 03:19:11;;;;;;;36.17;9.37;;;5.10;99.90;;;;;;5093490;28;20654;-77
2022/09/21 03:21:37;;;;;;;20.17;10.17;;;5.10;99.90;;;;;;5087265;28;20689;-77
2022/09/21 03:24:03;;;;;;;40.90;16.33;;;5.10;99.90;;;;;;5086329;28;20197;-78
2022/09/21 03:26:29;;;;;;;44.53;16.90;;;5.10;99.90;;;;;;5100197;28;20172;-78
2022/09/21 03:28:55;;;;;;;30.43;14.67;;;5.10;99.90;;;;;;5110142;28;20195;-77
2022/09/21 03:31:21;;;;;;;21.33;13.00;;;5.10;99.90;;;;;;5111373;28;20242;-77
2022/09/21 03:33:47;;;;;;;34.33;14.00;;;5.10;99.90;;;;;;5098821;28;20180;-77
2022/09/21 03:36:13;;;;;;;17.37;16.17;;;5.00;99.90;;;;;;5088838;28;20180;-76
2022/09/21 03:38:39;;;;;;;17.27;16.07;;;5.00;99.90;;;;;;5090346;28;20192;-76
2022/09/21 03:41:06;;;;;;;22.73;12.23;;;5.00;99.90;;;;;;5098215;28;20213;-77
2022/09/21 03:43:32;;;;;;;22.73;17.07;;;5.00;99.90;;;;;;5090778;28;20177;-76
2022/09/21 03:45:58;;;;;;;44.93;14.80;;;5.10;99.90;;;;;;5091260;28;20291;-76
2022/09/21 03:48:24;;;;;;;37.73;13.07;;;5.10;99.90;;;;;;5091581;28;20651;-76
2022/09/21 03:50:50;;;;;;;46.63;14.67;;;5.10;99.90;;;;;;5091905;28;20698;-76
2022/09/21 03:53:16;;;;;;;27.83;12.00;;;5.10;99.90;;;;;;5091644;28;20271;-76
2022/09/21 03:55:42;;;;;;;14.20;12.90;;;5.10;99.90;;;;;;5091754;28;20668;-77
2022/09/21 03:58:08;;;;;;;19.43;11.70;;;5.10;99.90;;;;;;5091273;28;20280;-77
2022/09/21 04:00:35;;;;;;;16.20;14.80;;;5.20;99.90;;;;;;5102817;22;20245;-78
2022/09/21 04:03:01;;;;;;;28.03;26.27;;;5.20;99.90;;;;;;5071349;28;20648;-79
2022/09/21 04:05:27;;;;;;;27.60;25.63;;;5.20;99.90;;;;;;5073148;28;20197;-78
2022/09/21 04:07:54;;;;;;;53.03;49.73;;;5.10;99.90;;;;;;5051855;28;20701;-79
2022/09/21 04:10:28;;;;;;;32.73;30.40;;;5.10;99.90;;;;;;5051897;28;20214;-77
2022/09/21 04:12:57;;;;;;;26.17;24.47;;;5.20;99.90;;;;;;5052597;28;20178;-79
2022/09/21 04:15:23;;;;;;;14.67;13.47;;;5.20;99.90;;;;;;5052921;28;20662;-78
2022/09/21 04:17:53;;;;;;;13.93;12.73;;;5.10;99.90;;;;;;5069377;28;20271;-79
2022/09/21 04:20:20;;;;;;;43.03;12.63;;;5.10;99.90;;;;;;5071830;28;20292;-79
2022/09/21 04:22:46;;;;;;;25.33;11.23;;;5.10;99.90;;;;;;5071737;28;20665;-76
2022/09/21 04:25:13;;;;;;;40.80;11.87;;;5.00;99.90;;;;;;5073892;28;20642;-78
2022/09/21 04:27:40;;;;;;;21.23;10.97;;;5.00;99.90;;;;;;5073850;28;20243;-77
2022/09/21 04:30:06;;;;;;;39.90;13.07;;;5.00;99.90;;;;;;5077044;28;20326;-77
2022/09/21 04:32:32;;;;;;;18.83;13.90;;;5.00;99.90;;;;;;5076754;28;20185;-78
2022/09/21 04:34:57;;;;;;;15.80;11.93;;;5.00;99.90;;;;;;5071611;28;20569;-77
2022/09/21 04:37:23;;;;;;;22.30;20.50;;;5.00;99.90;;;;;;5070847;28;20189;-78
2022/09/21 04:39:50;;;;;;;19.67;18.30;;;4.90;99.90;;;;;;5066911;28;20670;-78
2022/09/21 04:42:16;;;;;;;22.83;11.97;;;4.90;99.90;;;;;;5072018;28;20208;-78
2022/09/21 04:44:41;;;;;;;20.47;18.70;;;4.80;99.90;;;;;;5072162;28;20192;-77
2022/09/21 04:47:07;;;;;;;29.50;22.97;;;4.80;99.90;;;;;;5071623;28;20228;-77
2022/09/21 04:49:34;;;;;;;33.93;19.63;;;4.70;99.90;;;;;;5074682;28;20178;-78
2022/09/21 04:52:02;;;;;;;40.30;23.03;;;4.70;99.90;;;;;;5086197;28;20742;-77
2022/09/21 04:54:29;;;;;;;30.33;27.37;;;4.80;99.90;;;;;;5078710;28;20193;-78
2022/09/21 04:56:56;;;;;;;31.90;28.93;;;4.80;99.90;;;;;;5071195;28;20181;-79
2022/09/21 04:59:22;;;;;;;38.27;30.00;;;4.80;99.90;;;;;;5071099;28;20550;-78
2022/09/21 05:01:47;;;;;;;66.53;23.60;;;4.80;99.90;;;;;;5066953;28;20224;-78
2022/09/21 05:04:13;;;;;;;40.67;30.10;;;4.80;99.90;;;;;;5053376;28;20205;-78
2022/09/21 05:06:39;;;;;;;42.50;27.13;;;4.80;99.90;;;;;;5059483;28;20199;-78
2022/09/21 05:11:50;;;;;;;35.50;31.93;;;4.90;99.90;;;;;;5073984;28;20682;-82
2022/09/21 05:14:16;;;;;;;40.10;36.03;;;5.00;99.90;;;;;;5073358;28;20249;-78
2022/09/21 05:16:42;;;;;;;35.73;21.67;;;5.00;99.90;;;;;;5070605;28;20228;-78
2022/09/21 05:19:08;;;;;;;37.77;34.17;;;4.90;99.90;;;;;;5074709;28;20666;-78
2022/09/21 05:21:36;;;;;;;37.73;33.37;;;4.90;99.90;;;;;;5072914;28;20212;-78
2022/09/21 05:24:02;;;;;;;29.50;26.80;;;4.90;99.90;;;;;;5073270;28;20213;-77
2022/09/21 05:26:28;;;;;;;29.87;26.73;;;4.90;99.90;;;;;;5070020;28;20177;-78
2022/09/21 05:28:54;;;;;;;21.67;11.77;;;4.90;99.90;;;;;;5072660;28;20212;-77
2022/09/21 05:31:38;;;;;;;15.30;9.27;;;4.90;99.90;;;;;;5077661;28;20265;-78
2022/09/21 05:34:27;;;;;;;24.43;12.17;;;4.80;99.90;;;;;;5076624;28;20199;-78
2022/09/21 05:37:08;;;;;;;10.73;9.67;;;4.80;99.90;;;;;;5076561;28;20177;-79
2022/09/21 05:39:34;;;;;;;15.47;10.07;;;4.90;99.90;;;;;;5076408;28;20188;-78
2022/09/21 05:42:01;;;;;;;24.47;16.93;;;4.90;99.90;;;;;;5076721;28;20240;-79
2022/09/21 05:44:27;;;;;;;16.23;9.43;;;5.00;99.90;;;;;;5077971;28;20189;-78
2022/09/21 05:47:31;;;;;;;30.93;13.90;;;4.90;99.90;;;;;;5076627;28;20189;-78
2022/09/21 05:50:22;;;;;;;15.40;12.70;;;5.00;99.90;;;;;;5055577;28;20213;-78
2022/09/21 05:53:24;;;;;;;38.47;11.73;;;5.00;99.90;;;;;;5052870;28;20195;-77
2022/09/21 05:55:57;;;;;;;22.10;9.70;;;5.00;99.90;;;;;;5070271;28;20189;-76
2022/09/21 05:58:46;;;;;;;13.53;12.40;;;5.10;99.90;;;;;;5073637;28;20269;-77
2022/09/21 06:01:30;;;;;;;39.30;16.03;;;5.10;99.90;;;;;;5072125;28;20577;-77
2022/09/21 06:03:58;;;;;;;73.50;25.60;;;5.20;99.90;;;;;;5073296;28;20181;-76
2022/09/21 06:06:24;;;;;;;45.07;10.40;;;5.10;99.90;;;;;;5073694;28;20243;-77
2022/09/21 06:08:50;;;;;;;27.03;11.63;;;5.10;99.90;;;;;;5071758;28;20225;-77
2022/09/21 06:11:16;;;;;;;44.83;13.83;;;5.10;99.90;;;;;;5073541;28;20204;-77
2022/09/21 06:13:42;;;;;;;21.30;18.17;;;5.20;99.90;;;;;;5071851;28;20202;-77
2022/09/21 06:16:08;;;;;;;51.07;38.50;;;5.30;99.90;;;;;;5073106;28;20541;-77
2022/09/21 06:18:39;;;;;;;37.03;34.00;;;5.40;99.90;;;;;;5087815;28;20186;-76
2022/09/21 06:21:06;;;;;;;17.67;14.13;;;5.50;99.90;;;;;;5072236;28;20289;-76
2022/09/21 06:23:32;;;;;;;16.90;10.67;;;5.70;99.90;;;;;;5069998;28;20182;-75
2022/09/21 06:25:58;;;;;;;21.27;19.47;;;5.80;99.90;;;;;;5072867;28;20745;-75
2022/09/21 06:28:24;;;;;;;14.17;13.20;;;6.10;99.90;;;;;;5072270;28;20532;-75
2022/09/21 06:30:52;;;;;;;12.77;11.87;;;6.10;99.90;;;;;;5071334;28;20259;-74
2022/09/21 06:33:20;;;;;;;11.87;10.73;;;6.30;99.90;;;;;;5072881;28;20204;-76
2022/09/21 06:35:55;;;;;;;13.10;12.07;;;6.40;99.90;;;;;;5071940;28;20181;-76
2022/09/21 06:38:22;;;;;;;27.17;23.20;;;6.60;99.90;;;;;;5070430;28;20189;-76
2022/09/21 06:40:49;;;;;;;41.97;38.57;;;6.70;99.90;;;;;;5072928;28;20202;-77
2022/09/21 06:43:15;;;;;;;22.67;20.40;;;6.80;99.90;;;;;;5070825;28;20217;-76
2022/09/21 06:45:40;;;;;;;18.33;12.07;;;6.90;99.90;;;;;;5072003;28;20186;-77
2022/09/21 06:48:07;;;;;;;11.47;10.47;;;6.90;99.90;;;;;;5072156;28;20185;-77
2022/09/21 06:50:33;;;;;;;12.07;11.07;;;6.90;99.90;;;;;;5071417;28;20287;-77
2022/09/21 06:53:00;;;;;;;14.27;11.07;;;6.90;99.90;;;;;;5072597;28;20178;-75
2022/09/21 06:55:27;;;;;;;16.30;14.70;;;6.90;99.90;;;;;;5071791;28;20673;-75
2022/09/21 06:57:53;;;;;;;26.87;24.87;;;6.90;99.90;;;;;;5070779;28;20178;-75
2022/09/21 07:00:19;;;;;;;29.50;27.37;;;7.00;99.90;;;;;;5071556;28;20239;-75
2022/09/21 07:02:45;;;;;;;25.10;22.77;;;7.10;99.90;;;;;;5072849;28;20300;-76
2022/09/21 07:05:11;;;;;;;15.03;13.93;;;7.20;99.90;;;;;;5075152;28;20178;-76
2022/09/21 07:07:39;;;;;;;9.90;9.13;;;7.40;99.90;;;;;;5070605;28;20595;-76
2022/09/21 07:10:06;;;;;;;27.23;25.07;;;7.50;99.90;;;;;;5070487;28;20694;-76
2022/09/21 07:12:34;;;;;;;19.80;18.33;;;7.70;99.90;;;;;;5071260;28;20182;-77
2022/09/21 07:15:04;;;;;;;35.50;33.27;;;7.90;99.90;;;;;;5070931;28;20193;-77
2022/09/21 07:17:35;;;;;;;20.27;18.77;;;8.20;99.90;;;;;;5070136;28;20198;-77
2022/09/21 07:20:02;;;;;;;15.03;13.93;;;8.40;99.90;;;;;;5071279;28;20228;-77
2022/09/21 07:22:31;;;;;;;13.93;12.80;;;8.80;99.90;;;;;;5071635;28;20209;-77
2022/09/21 07:24:57;;;;;;;13.93;12.83;;;9.40;99.90;;;;;;5072861;28;20480;-77
2022/09/21 07:27:29;;;;;;;10.77;9.97;;;9.90;99.90;;;;;;5072029;28;20264;-76
2022/09/21 07:29:54;;;;;;;9.47;8.77;;;10.50;99.90;;;;;;5072214;28;20191;-77
2022/09/21 07:32:20;;;;;;;11.33;10.13;;;10.60;99.90;;;;;;5070875;28;20178;-76
2022/09/21 07:34:46;;;;;;;12.47;11.57;;;10.90;99.90;;;;;;5070960;28;20186;-76
2022/09/21 07:37:13;;;;;;;10.07;9.27;;;11.30;99.90;;;;;;5070446;28;20848;-76
2022/09/21 07:39:39;;;;;;;9.37;8.77;;;11.80;99.90;;;;;;5072089;28;20181;-76
2022/09/21 07:42:05;;;;;;;12.27;11.47;;;12.30;99.90;;;;;;5070830;28;20200;-77
2022/09/21 07:44:33;;;;;;;25.13;23.73;;;12.70;99.90;;;;;;5072292;28;20242;-77
2022/09/21 07:47:00;;;;;;;21.57;20.27;;;12.70;99.90;;;;;;5065155;28;20184;-77
2022/09/21 07:49:25;;;;;;;16.40;15.23;;;12.90;99.90;;;;;;5070994;28;20217;-80
2022/09/21 07:51:51;;;;;;;9.50;8.67;;;13.00;99.90;;;;;;5072068;28;20240;-76
2022/09/21 07:54:17;;;;;;;12.03;11.10;;;13.30;99.90;;;;;;5070432;28;20199;-77
2022/09/21 07:59:04;;;;;;;10.00;9.30;;;13.80;99.90;;;;;;5069913;28;20613;-76
2022/09/21 07:59:31;;;;;;;9.00;8.30;;;14.00;99.90;;;;;;5071478;28;20205;-77
2022/09/21 08:01:57;;;;;;;10.10;9.20;;;14.30;99.90;;;;;;5071351;28;20205;-75
2022/09/21 08:04:25;;;;;;;15.83;14.63;;;14.60;99.90;;;;;;5073371;28;20224;-81
2022/09/21 08:06:51;;;;;;;11.10;10.37;;;15.00;99.90;;;;;;5072252;28;20170;-79
2022/09/21 08:09:17;;;;;;;9.77;8.90;;;15.10;99.90;;;;;;5072032;28;20184;-77
2022/09/21 08:11:45;;;;;;;8.33;7.73;;;15.60;99.90;;;;;;5072705;28;20197;-80
2022/09/21 08:14:18;;;;;;;9.33;8.53;;;15.70;99.90;;;;;;5076477;28;20189;-78
2022/09/21 08:16:46;;;;;;;8.03;7.43;;;16.00;99.90;;;;;;5079318;28;20181;-77
2022/09/21 08:19:16;;;;;;;8.17;7.57;;;16.20;99.90;;;;;;5074400;28;20205;-79
2022/09/21 08:21:42;;;;;;;7.77;7.17;;;16.40;99.90;;;;;;5070891;28;20205;-78
2022/09/21 08:24:08;;;;;;;7.20;6.70;;;16.50;99.90;;;;;;5071529;28;20323;-77
2022/09/21 08:26:35;;;;;;;6.90;5.90;;;16.70;99.90;;;;;;5070958;28;20904;-77
2022/09/21 08:29:01;;;;;;;6.57;5.97;;;16.90;99.90;;;;;;5069314;28;20173;-77
2022/09/21 08:31:28;;;;;;;6.10;5.60;;;16.70;99.90;;;;;;5071108;28;20619;-78
2022/09/21 08:33:56;;;;;;;7.27;5.73;;;16.20;99.90;;;;;;5052964;28;20190;-78
2022/09/21 08:36:22;;;;;;;6.20;5.57;;;16.00;99.90;;;;;;5052304;28;20182;-78
2022/09/21 08:38:49;;;;;;;6.33;5.83;;;16.30;99.90;;;;;;5070512;28;20182;-77
2022/09/21 08:41:49;;;;;;;7.13;6.50;;;16.10;99.90;;;;;;5070070;28;20201;-78
2022/09/21 08:44:22;;;;;;;7.03;6.30;;;16.20;99.90;;;;;;5072437;28;20209;-79
2022/09/21 08:47:10;;;;;;;6.63;6.13;;;16.70;99.90;;;;;;5071467;28;20178;-79
2022/09/21 08:49:38;;;;;;;5.20;4.80;;;17.10;99.90;;;;;;5073113;28;20209;-79
2022/09/21 08:52:10;;;;;;;5.87;5.20;;;17.30;99.90;;;;;;5072329;28;20181;-79
2022/09/21 08:54:51;;;;;;;7.00;4.97;;;17.50;99.90;;;;;;5072564;28;20713;-79
2022/09/21 08:57:19;;;;;;;6.27;5.80;;;17.90;99.90;;;;;;5071782;28;20197;-79
2022/09/21 08:59:47;;;;;;;6.50;6.17;;;18.00;99.90;;;;;;5071984;28;20181;-79
2022/09/21 09:02:34;;;;;;;6.87;6.27;;;18.00;99.90;;;;;;5072221;28;20213;-78
2022/09/21 09:05:19;;;;;;;5.20;4.90;;;18.50;99.90;;;;;;5070680;28;20177;-78
2022/09/21 09:08:07;;;;;;;5.50;5.13;;;18.80;99.90;;;;;;5070260;28;20177;-77
2022/09/21 09:10:54;;;;;;;4.53;4.13;;;18.80;99.90;;;;;;5071371;28;20288;-78
2022/09/21 09:13:26;;;;;;;5.37;4.83;;;18.70;99.90;;;;;;5072400;28;20650;-78
2022/09/21 09:16:13;;;;;;;7.57;7.07;;;18.90;99.90;;;;;;5071779;28;20181;-79
2022/09/21 09:18:53;;;;;;;14.50;13.73;;;19.40;99.90;;;;;;5071815;28;20170;-79
2022/09/21 09:21:42;;;;;;;22.23;21.03;;;19.30;99.90;;;;;;5087589;28;20236;-79
2022/09/21 09:24:17;;;;;;;22.93;21.80;;;19.40;99.90;;;;;;5083570;28;20276;-78
2022/09/21 09:26:46;;;;;;;30.40;28.90;;;19.80;99.90;;;;;;5082562;28;20184;-79
2022/09/21 09:29:28;;;;;;;28.47;27.13;;;20.30;99.90;;;;;;5078490;28;20588;-80
2022/09/21 09:31:54;;;;;;;13.70;13.07;;;20.60;99.90;;;;;;5081549;28;20205;-79
2022/09/21 09:34:32;;;;;;;9.03;8.43;;;21.00;99.90;;;;;;5080657;28;20541;-81
2022/09/21 09:37:09;;;;;;;9.17;8.50;;;20.50;99.90;;;;;;5071769;28;20465;-79
2022/09/21 09:39:36;;;;;;;8.10;7.70;;;20.00;99.90;;;;;;5072631;28;20686;-79
2022/09/21 09:42:24;;;;;;;8.83;8.23;;;19.80;99.90;;;;;;5072159;28;20324;-80
2022/09/21 09:45:35;;;;;;;6.83;6.43;;;20.60;99.90;;;;;;5065186;28;20185;-79
2022/09/21 09:48:19;;;;;;;4.97;4.67;;;21.50;98.10;;;;;;5066024;28;20186;-80
2022/09/21 09:50:45;;;;;;;3.73;3.57;;;22.00;96.70;;;;;;5052568;28;20594;-78
2022/09/21 09:53:16;;;;;;;3.83;3.53;;;22.20;95.80;;;;;;5054207;28;20195;-76
2022/09/21 09:55:54;;;;;;;4.07;3.77;;;20.90;95.20;;;;;;5059127;28;20212;-82
2022/09/21 09:58:44;;;;;;;6.37;6.17;;;20.00;97.40;;;;;;5077023;28;20207;-78
2022/09/21 10:01:42;;;;;;;6.00;5.67;;;19.60;98.20;;;;;;5081065;23;20322;-79
2022/09/21 10:04:11;;;;;;;7.83;7.33;;;19.40;99.20;;;;;;5079667;28;20272;-79
2022/09/21 10:06:38;;;;;;;7.70;7.40;;;19.10;98.90;;;;;;5070238;28;20184;-77
2022/09/21 10:09:19;;;;;;;7.90;7.47;;;19.10;98.80;;;;;;5052978;28;20179;-77
2022/09/21 10:11:46;;;;;;;10.47;9.87;;;18.80;99.30;;;;;;5050970;28;20220;-78
2022/09/21 10:14:23;;;;;;;8.40;7.63;;;18.60;99.50;;;;;;5060326;28;20269;-79
2022/09/21 10:16:51;;;;;;;17.33;16.37;;;18.10;99.90;;;;;;5054220;28;20268;-78
2022/09/21 10:19:20;;;;;;;26.47;25.17;;;18.00;99.90;;;;;;5073460;28;20184;-76
2022/09/21 10:21:50;;;;;;;12.17;11.63;;;17.60;99.90;;;;;;5073594;28;20313;-75
2022/09/21 10:24:29;;;;;;;25.07;23.87;;;18.10;99.80;;;;;;5072306;28;20185;-76
2022/09/21 10:27:14;;;;;;;46.97;44.67;;;18.00;99.90;;;;;;5071831;28;20201;-78
2022/09/21 10:29:46;;;;;;;46.77;44.53;;;17.60;99.90;;;;;;5073441;28;20188;-76
2022/09/21 10:32:12;;;;;;;52.13;49.50;;;17.40;99.90;;;;;;5073341;28;20760;-77
2022/09/21 10:34:40;;;;;;;50.80;48.23;;;17.50;99.90;;;;;;5071805;28;20537;-74
2022/09/21 10:37:32;;;;;;;45.30;42.87;;;16.90;99.90;;;;;;5071528;28;20646;-76
2022/09/21 10:39:58;;;;;;;36.80;34.90;;;16.50;99.90;;;;;;5072160;28;20186;-76
2022/09/21 10:42:24;;;;;;;30.83;29.13;;;16.40;99.90;;;;;;5072959;28;20213;-76
2022/09/21 10:44:52;;;;;;;27.03;25.50;;;16.20;99.90;;;;;;5073202;28;20181;-76
2022/09/21 10:47:33;;;;;;;26.07;24.83;;;16.00;99.90;;;;;;5072582;28;20197;-76
2022/09/21 10:50:02;;;;;;;25.00;23.73;;;16.00;99.90;;;;;;5087733;28;20264;-76
2022/09/21 10:52:37;;;;;;;23.80;22.70;;;16.20;99.90;;;;;;5074865;28;20197;-76
2022/09/21 10:55:06;;;;;;;33.87;32.27;;;16.80;99.90;;;;;;5072875;28;20185;-76
2022/09/21 10:57:33;;;;;;;49.57;47.10;;;17.50;99.90;;;;;;5071058;28;20185;-77
2022/09/21 11:00:28;;;;;;;45.53;43.30;;;17.90;99.90;;;;;;5073234;28;20189;-75
2022/09/21 11:02:55;;;;;;;44.87;42.63;;;17.60;99.90;;;;;;5071258;28;20262;-77
2022/09/21 11:05:30;;;;;;;48.50;46.13;;;17.30;99.90;;;;;;5052716;28;20183;-76
2022/09/21 11:08:31;;;;;;;24.77;23.47;;;18.00;99.90;;;;;;5050034;28;20185;-76
2022/09/21 11:11:26;;;;;;;7.57;7.17;;;19.60;99.10;;;;;;5038071;28;20226;-75
2022/09/21 11:14:15;;;;;;;5.67;5.47;;;21.20;95.60;;;;;;5059190;28;20197;-78
2022/09/21 11:17:07;;;;;;;6.07;5.63;;;20.90;94.00;;;;;;5071676;28;20197;-78
2022/09/21 11:19:36;;;;;;;4.90;4.70;;;20.20;94.90;;;;;;5072645;28;20598;-78
2022/09/21 11:22:26;;;;;;;3.67;3.57;;;21.10;93.70;;;;;;5071940;28;20251;-78
2022/09/21 11:25:13;;;;;;;3.43;3.33;;;21.80;91.70;;;;;;5072499;28;20185;-77
2022/09/21 11:27:40;;;;;;;3.93;3.73;;;22.50;90.00;;;;;;5071615;28;20188;-78
2022/09/21 11:30:13;;;;;;;6.50;6.23;;;22.90;88.60;;;;;;5074281;28;20173;-78
2022/09/21 11:33:04;;;;;;;3.50;3.30;;;21.70;87.00;;;;;;5070873;28;20708;-76
2022/09/21 11:35:33;;;;;;;4.70;4.50;;;19.50;91.30;;;;;;5073344;28;20190;-77
2022/09/21 11:38:49;;;;;;;4.53;4.33;;;19.40;93.50;;;;;;5078509;28;20178;-76
2022/09/21 11:41:41;;;;;;;4.90;4.70;;;21.40;91.40;;;;;;5011279;28;20219;-75
2022/09/21 11:44:22;;;;;;;7.47;6.93;;;22.70;84.20;;;;;;5012242;28;20195;-79
2022/09/21 11:46:56;;;;;;;10.68;10.25;;;23.40;83.10;;;;;;5048930;28;20225;-76
2022/09/21 11:49:50;;;;;;;21.50;20.52;;;24.10;78.80;;;;;;5055412;28;20174;-76
2022/09/21 11:52:41;;;;;;;17.92;17.08;;;24.30;75.80;;;;;;5061955;28;20624;-77
2022/09/21 11:55:26;;;;;;;22.98;21.83;;;24.20;74.50;;;;;;5073654;28;20181;-79
2022/09/21 11:58:09;;;;;;;30.73;29.33;;;24.50;72.00;;;;;;5072980;28;20221;-77
2022/09/21 12:01:20;;;;;;;37.85;36.15;;;24.30;73.40;;;;;;5072344;28;20185;-76
2022/09/21 12:04:02;;;;;;;11.88;11.38;;;24.60;71.70;;;;;;5068326;28;20277;-76
2022/09/21 12:06:37;;;;;;;7.00;6.70;;;24.70;69.00;;;;;;5053443;28;20387;-78
2022/09/21 12:09:21;;;;;;;13.27;12.75;;;24.50;67.60;;;;;;5055457;28;20249;-79
2022/09/21 12:12:00;;;;;;;8.13;7.82;;;24.00;69.10;;;;;;5057334;28;20198;-78
2022/09/21 12:14:27;;;;;;;8.25;7.85;;;25.10;65.50;;;;;;5072818;28;20231;-77
2022/09/21 12:16:58;;;;;;;9.35;8.98;;;24.00;67.90;;;;;;5066328;28;20264;-77
2022/09/21 12:19:43;;;;;;;6.72;6.43;;;24.40;66.70;;;;;;5075301;28;20181;-76
2022/09/21 12:22:34;;;;;;;10.48;9.93;;;24.50;65.20;;;;;;5075775;28;20310;-78
2022/09/21 12:25:20;;;;;;;4.60;4.40;;;25.50;64.70;;;;;;5061891;28;20190;-77
2022/09/21 12:27:57;;;;;;;4.77;4.57;;;25.30;59.40;;;;;;5060579;28;20299;-78
2022/09/21 12:30:23;;;;;;;10.37;9.87;;;22.20;64.10;;;;;;5068764;28;20185;-76
2022/09/21 12:33:02;;;;;;;21.27;20.37;;;20.80;69.90;;;;;;5069661;28;20244;-79
2022/09/21 12:35:40;;;;;;;11.70;11.20;;;21.90;68.80;;;;;;5082081;28;20439;-77
2022/09/21 12:38:20;;;;;;;25.27;24.17;;;23.40;65.70;;;;;;5070823;28;20185;-78
2022/09/21 12:41:14;;;;;;;15.83;15.03;;;21.60;68.00;;;;;;5070039;28;20844;-76
2022/09/21 12:44:14;;;;;;;13.80;13.20;;;20.30;74.60;;;;;;5056636;28;20239;-77
2022/09/21 12:46:49;;;;;;;11.73;11.23;;;19.80;76.70;;;;;;5071630;28;20235;-78
2022/09/21 12:49:23;;;;;;;10.97;10.47;;;20.50;77.90;;;;;;5070669;28;20199;-77
2022/09/21 12:51:54;;;;;;;11.20;10.60;;;22.50;74.40;;;;;;5068482;28;20289;-77
2022/09/21 12:54:29;;;;;;;25.08;23.88;;;24.70;70.40;;;;;;5069320;28;20181;-77
2022/09/21 12:57:09;;;;;;;7.00;6.60;;;25.80;64.60;;;;;;5068996;28;20868;-78
2022/09/21 13:00:07;;;;;;;3.75;3.63;;;26.60;62.20;;;;;;5069405;28;20185;-78
2022/09/21 13:02:36;;;;;;;4.47;4.28;;;26.40;59.90;;;;;;5060600;28;20229;-78
2022/09/21 13:05:02;;;;;;;4.90;4.70;;;23.50;63.00;;;;;;5070369;28;20654;-77
2022/09/21 13:07:38;;;;;;;21.10;20.20;;;22.00;66.80;;;;;;5068998;28;20224;-76
2022/09/21 13:10:21;;;;;;;25.53;24.33;;;21.00;70.50;;;;;;5069498;28;20271;-77
2022/09/21 13:12:53;;;;;;;13.60;13.00;;;19.90;74.90;;;;;;5069352;28;20219;-78